sensor_id;sensor_type;location;lat;lon;timestamp;pressure;altitude;pressure_sealevel;temperature;humidity
12358;BME280;6243;51.244;6.774;2023-03-20T00:02:10;152741.00;;;20.89;53.36
12358;BME280;6243;51.244;6.774;2023-03-20T00:04:43;152770.47;;;21.00;53.00
12358;BME280;6243;51.244;6.774;2023-03-20T00:07:09;152748.72;;;20.92;52.95
12358;BME280;6243;51.244;6.774;2023-03-20T00:09:34;152692.31;;;20.70;53.12
12358;BME280;6243;51.244;6.774;2023-03-20T00:12:00;152676.94;;;20.64;53.12
12358;BME280;6243;51.244;6.774;2023-03-20T00:14:25;152651.31;;;20.53;52.97
12358;BME280;6243;51.244;6.774;2023-03-20T00:16:51;152629.53;;;20.45;53.33
12358;BME280;6243;51.244;6.774;2023-03-20T00:19:18;152638.53;;;20.48;53.20
12358;BME280;6243;51.244;6.774;2023-03-20T00:21:46;152660.28;;;20.57;53.11
12358;BME280;6243;51.244;6.774;2023-03-20T00:24:12;152635.94;;;20.47;53.46
12358;BME280;6243;51.244;6.774;2023-03-20T00:26:38;152550.09;;;20.14;54.11
12358;BME280;6243;51.244;6.774;2023-03-20T00:29:05;152577.03;;;20.24;54.04
12358;BME280;6243;51.244;6.774;2023-03-20T00:31:33;152605.19;;;20.35;53.69
12358;BME280;6243;51.244;6.774;2023-03-20T00:34:01;152566.75;;;20.20;54.31
12358;BME280;6243;51.244;6.774;2023-03-20T00:36:27;152553.94;;;20.15;54.31
12358;BME280;6243;51.244;6.774;2023-03-20T00:38:54;152530.88;;;20.06;54.62
12358;BME280;6243;51.244;6.774;2023-03-20T00:41:25;152533.47;;;20.07;54.55
12358;BME280;6243;51.244;6.774;2023-03-20T00:43:53;152579.59;;;20.25;54.21
12358;BME280;6243;51.244;6.774;2023-03-20T00:46:19;152548.81;;;20.13;54.53
12358;BME280;6243;51.244;6.774;2023-03-20T00:48:45;152600.06;;;20.33;54.13
12358;BME280;6243;51.244;6.774;2023-03-20T00:51:11;152588.56;;;20.29;54.10
12358;BME280;6243;51.244;6.774;2023-03-20T00:53:36;152565.44;;;20.20;54.31
12358;BME280;6243;51.244;6.774;2023-03-20T00:56:04;152512.94;;;19.99;54.64
12358;BME280;6243;51.244;6.774;2023-03-20T00:58:30;152561.63;;;20.18;54.27
12358;BME280;6243;51.244;6.774;2023-03-20T01:00:56;152520.63;;;20.02;54.71
12358;BME280;6243;51.244;6.774;2023-03-20T01:03:24;152530.88;;;20.06;54.45
12358;BME280;6243;51.244;6.774;2023-03-20T01:05:51;152525.75;;;20.04;54.36
12358;BME280;6243;51.244;6.774;2023-03-20T01:08:18;152565.44;;;20.20;54.08
12358;BME280;6243;51.244;6.774;2023-03-20T01:10:45;152532.16;;;20.07;54.34
12358;BME280;6243;51.244;6.774;2023-03-20T01:13:18;152489.91;;;19.90;54.68
12358;BME280;6243;51.244;6.774;2023-03-20T01:15:44;152487.38;;;19.89;54.72
12358;BME280;6243;51.244;6.774;2023-03-20T01:18:12;152486.06;;;19.89;54.70
12358;BME280;6243;51.244;6.774;2023-03-20T01:20:38;152461.72;;;19.79;54.89
12358;BME280;6243;51.244;6.774;2023-03-20T01:23:03;152502.72;;;19.95;54.50
12358;BME280;6243;51.244;6.774;2023-03-20T01:25:29;152482.25;;;19.87;54.80
12358;BME280;6243;51.244;6.774;2023-03-20T01:27:54;152448.94;;;19.74;54.93
12358;BME280;6243;51.244;6.774;2023-03-20T01:30:23;152504.00;;;19.96;54.37
12358;BME280;6243;51.244;6.774;2023-03-20T01:32:49;152478.38;;;19.86;54.72
12358;BME280;6243;51.244;6.774;2023-03-20T01:35:17;152423.34;;;19.64;55.08
12358;BME280;6243;51.244;6.774;2023-03-20T01:37:43;152464.31;;;19.80;54.90
12358;BME280;6243;51.244;6.774;2023-03-20T01:40:16;152457.91;;;19.77;54.82
12358;BME280;6243;51.244;6.774;2023-03-20T01:42:43;152451.50;;;19.75;54.93
12358;BME280;6243;51.244;6.774;2023-03-20T01:45:15;152470.72;;;19.83;54.84
12358;BME280;6243;51.244;6.774;2023-03-20T01:47:44;152441.28;;;19.71;54.90
12358;BME280;6243;51.244;6.774;2023-03-20T01:50:28;152442.50;;;19.71;55.24
12358;BME280;6243;51.244;6.774;2023-03-20T01:52:59;152460.44;;;19.78;54.68
12358;BME280;6243;51.244;6.774;2023-03-20T01:55:26;152431.00;;;19.67;54.99
12358;BME280;6243;51.244;6.774;2023-03-20T01:57:53;152379.81;;;19.47;55.17
12358;BME280;6243;51.244;6.774;2023-03-20T02:00:20;152369.56;;;19.43;55.15
12358;BME280;6243;51.244;6.774;2023-03-20T02:02:47;152255.66;;;18.98;55.82
12358;BME280;6243;51.244;6.774;2023-03-20T02:05:14;152277.38;;;19.06;55.92
12358;BME280;6243;51.244;6.774;2023-03-20T02:07:44;152233.84;;;18.89;55.68
12358;BME280;6243;51.244;6.774;2023-03-20T02:10:13;152163.53;;;18.62;56.39
12358;BME280;6243;51.244;6.774;2023-03-20T02:12:40;152191.69;;;18.73;56.08
12358;BME280;6243;51.244;6.774;2023-03-20T02:15:06;152177.59;;;18.67;56.33
12358;BME280;6243;51.244;6.774;2023-03-20T02:17:32;152158.38;;;18.60;56.13
12358;BME280;6243;51.244;6.774;2023-03-20T02:20:05;152231.31;;;18.88;55.71
12358;BME280;6243;51.244;6.774;2023-03-20T02:23:15;152035.59;;;18.11;57.27
12358;BME280;6243;51.244;6.774;2023-03-20T02:26:19;152119.97;;;18.44;56.65
12358;BME280;6243;51.244;6.774;2023-03-20T02:29:28;152042.00;;;18.14;57.00
12358;BME280;6243;51.244;6.774;2023-03-20T02:35:36;152027.91;;;18.08;57.29
12358;BME280;6243;51.244;6.774;2023-03-20T02:38:36;152088.03;;;18.32;56.95
12358;BME280;6243;51.244;6.774;2023-03-20T02:41:11;152089.28;;;18.32;56.45
12358;BME280;6243;51.244;6.774;2023-03-20T02:43:42;152067.53;;;18.24;57.03
12358;BME280;6243;51.244;6.774;2023-03-20T02:46:18;151981.88;;;17.90;57.86
12358;BME280;6243;51.244;6.774;2023-03-20T02:48:52;151938.41;;;17.73;58.06
12358;BME280;6243;51.244;6.774;2023-03-20T02:51:24;151981.88;;;17.90;57.58
12358;BME280;6243;51.244;6.774;2023-03-20T02:53:59;151929.47;;;17.69;58.42
12358;BME280;6243;51.244;6.774;2023-03-20T02:56:31;152036.84;;;18.12;57.57
12358;BME280;6243;51.244;6.774;2023-03-20T02:59:05;152035.59;;;18.11;57.07
12358;BME280;6243;51.244;6.774;2023-03-20T03:01:39;152013.81;;;18.03;57.35
12358;BME280;6243;51.244;6.774;2023-03-20T03:04:08;151989.56;;;17.93;57.64
12358;BME280;6243;51.244;6.774;2023-03-20T03:06:38;152025.34;;;18.07;57.23
12358;BME280;6243;51.244;6.774;2023-03-20T03:09:10;152036.84;;;18.12;57.10
12358;BME280;6243;51.244;6.774;2023-03-20T03:11:41;151902.66;;;17.59;58.55
12358;BME280;6243;51.244;6.774;2023-03-20T03:14:14;151937.16;;;17.73;57.87
12358;BME280;6243;51.244;6.774;2023-03-20T03:16:43;151944.78;;;17.76;58.08
12358;BME280;6243;51.244;6.774;2023-03-20T03:19:12;152068.84;;;18.24;57.22
12358;BME280;6243;51.244;6.774;2023-03-20T03:21:40;152109.75;;;18.40;56.72
12358;BME280;6243;51.244;6.774;2023-03-20T03:24:20;152047.09;;;18.16;56.84
12358;BME280;6243;51.244;6.774;2023-03-20T03:26:47;151911.56;;;17.62;57.95
12358;BME280;6243;51.244;6.774;2023-03-20T03:29:15;152025.34;;;18.07;57.40
12358;BME280;6243;51.244;6.774;2023-03-20T03:31:42;151932.03;;;17.70;57.81
12358;BME280;6243;51.244;6.774;2023-03-20T03:34:10;151990.81;;;17.94;57.32
12358;BME280;6243;51.244;6.774;2023-03-20T03:36:43;152004.91;;;17.99;56.86
12358;BME280;6243;51.244;6.774;2023-03-20T03:39:20;152061.13;;;18.21;56.58
12358;BME280;6243;51.244;6.774;2023-03-20T03:41:50;152040.72;;;18.13;56.76
12358;BME280;6243;51.244;6.774;2023-03-20T03:44:22;152079.06;;;18.28;56.13
12358;BME280;6243;51.244;6.774;2023-03-20T03:46:52;152166.06;;;18.63;55.65
12358;BME280;6243;51.244;6.774;2023-03-20T03:49:21;152053.50;;;18.18;56.66
12358;BME280;6243;51.244;6.774;2023-03-20T03:51:49;152062.44;;;18.22;56.48
12358;BME280;6243;51.244;6.774;2023-03-20T03:54:21;152123.84;;;18.46;55.89
12358;BME280;6243;51.244;6.774;2023-03-20T03:56:49;152150.75;;;18.57;55.37
12358;BME280;6243;51.244;6.774;2023-03-20T03:59:19;152189.09;;;18.72;55.32
12358;BME280;6243;51.244;6.774;2023-03-20T04:01:46;152241.56;;;18.92;54.62
12358;BME280;6243;51.244;6.774;2023-03-20T04:04:14;152105.88;;;18.39;54.81
12358;BME280;6243;51.244;6.774;2023-03-20T04:06:41;152169.91;;;18.64;55.01
12358;BME280;6243;51.244;6.774;2023-03-20T04:09:06;152195.50;;;18.74;54.69
12358;BME280;6243;51.244;6.774;2023-03-20T04:11:33;152227.50;;;18.87;54.42
12358;BME280;6243;51.244;6.774;2023-03-20T04:13:59;152143.06;;;18.54;54.73
12358;BME280;6243;51.244;6.774;2023-03-20T04:16:24;152226.22;;;18.86;54.04
12358;BME280;6243;51.244;6.774;2023-03-20T04:18:50;152004.91;;;17.99;55.78
12358;BME280;6243;51.244;6.774;2023-03-20T04:21:16;152137.94;;;18.52;54.47
12358;BME280;6243;51.244;6.774;2023-03-20T04:23:41;151912.84;;;17.63;56.33
12358;BME280;6243;51.244;6.774;2023-03-20T04:26:07;151942.25;;;17.75;55.96
12358;BME280;6243;51.244;6.774;2023-03-20T04:28:34;152015.13;;;18.03;55.37
12358;BME280;6243;51.244;6.774;2023-03-20T04:31:00;152013.81;;;18.03;55.31
12358;BME280;6243;51.244;6.774;2023-03-20T04:33:26;152018.97;;;18.05;55.38
12358;BME280;6243;51.244;6.774;2023-03-20T04:35:52;152129.00;;;18.48;54.45
12358;BME280;6243;51.244;6.774;2023-03-20T04:38:18;152029.19;;;18.09;55.02
12358;BME280;6243;51.244;6.774;2023-03-20T04:40:44;152038.13;;;18.12;54.88
12358;BME280;6243;51.244;6.774;2023-03-20T04:43:10;152105.88;;;18.39;54.47
12358;BME280;6243;51.244;6.774;2023-03-20T04:45:37;151980.59;;;17.90;55.18
12358;BME280;6243;51.244;6.774;2023-03-20T04:48:03;151754.34;;;17.00;57.62
12358;BME280;6243;51.244;6.774;2023-03-20T04:50:29;151897.50;;;17.57;56.22
12358;BME280;6243;51.244;6.774;2023-03-20T04:52:54;151985.72;;;17.92;55.83
12358;BME280;6243;51.244;6.774;2023-03-20T04:55:20;151839.94;;;17.34;57.05
12358;BME280;6243;51.244;6.774;2023-03-20T04:57:45;151782.44;;;17.12;56.94
12358;BME280;6243;51.244;6.774;2023-03-20T05:00:12;151747.94;;;16.98;57.19
12358;BME280;6243;51.244;6.774;2023-03-20T05:02:38;151939.69;;;17.73;55.80
12358;BME280;6243;51.244;6.774;2023-03-20T05:05:05;152004.91;;;17.99;54.94
12358;BME280;6243;51.244;6.774;2023-03-20T05:07:30;151898.78;;;17.57;55.34
12358;BME280;6243;51.244;6.774;2023-03-20T05:09:56;151875.72;;;17.48;55.97
12358;BME280;6243;51.244;6.774;2023-03-20T05:12:21;151938.41;;;17.73;55.69
12358;BME280;6243;51.244;6.774;2023-03-20T05:14:47;151898.78;;;17.57;55.86
12358;BME280;6243;51.244;6.774;2023-03-20T05:17:12;152035.59;;;18.11;54.86
12358;BME280;6243;51.244;6.774;2023-03-20T05:19:39;151888.56;;;17.53;55.97
12358;BME280;6243;51.244;6.774;2023-03-20T05:22:05;152024.09;;;18.07;55.01
12358;BME280;6243;51.244;6.774;2023-03-20T05:24:30;151864.22;;;17.44;56.03
12358;BME280;6243;51.244;6.774;2023-03-20T05:26:56;151990.81;;;17.94;55.26
12358;BME280;6243;51.244;6.774;2023-03-20T05:29:22;151998.50;;;17.97;55.07
12358;BME280;6243;51.244;6.774;2023-03-20T05:31:47;151601.03;;;16.40;58.67
12358;BME280;6243;51.244;6.774;2023-03-20T05:34:13;151978.06;;;17.89;55.50
12358;BME280;6243;51.244;6.774;2023-03-20T05:36:40;151938.41;;;17.73;55.62
12358;BME280;6243;51.244;6.774;2023-03-20T05:39:05;151745.41;;;16.97;57.08
12358;BME280;6243;51.244;6.774;2023-03-20T05:41:31;151956.28;;;17.80;55.64
12358;BME280;6243;51.244;6.774;2023-03-20T05:43:56;151823.31;;;17.28;57.00
12358;BME280;6243;51.244;6.774;2023-03-20T05:46:22;151768.41;;;17.06;56.88
12358;BME280;6243;51.244;6.774;2023-03-20T05:48:47;151910.28;;;17.62;56.23
12358;BME280;6243;51.244;6.774;2023-03-20T05:51:13;151823.31;;;17.28;56.83
12358;BME280;6243;51.244;6.774;2023-03-20T05:53:40;151953.78;;;17.79;55.77
12358;BME280;6243;51.244;6.774;2023-03-20T05:56:06;151965.28;;;17.84;55.70
12358;BME280;6243;51.244;6.774;2023-03-20T05:58:32;152026.63;;;18.08;54.94
12358;BME280;6243;51.244;6.774;2023-03-20T06:00:57;151884.75;;;17.52;56.64
12358;BME280;6243;51.244;6.774;2023-03-20T06:03:23;151687.94;;;16.74;58.24
12358;BME280;6243;51.244;6.774;2023-03-20T06:05:48;151728.81;;;16.90;58.76
12358;BME280;6243;51.244;6.774;2023-03-20T06:08:14;151763.31;;;17.04;58.26
12358;BME280;6243;51.244;6.774;2023-03-20T06:10:41;151724.94;;;16.89;58.86
12358;BME280;6243;51.244;6.774;2023-03-20T06:13:06;151671.34;;;16.68;59.29
12358;BME280;6243;51.244;6.774;2023-03-20T06:15:32;151449.09;;;15.80;62.41
12358;BME280;6243;51.244;6.774;2023-03-20T06:17:58;151355.88;;;15.43;62.43
12358;BME280;6243;51.244;6.774;2023-03-20T06:20:24;151495.06;;;15.98;61.88
12358;BME280;6243;51.244;6.774;2023-03-20T06:22:50;151413.34;;;15.66;62.64
12358;BME280;6243;51.244;6.774;2023-03-20T06:25:16;151691.75;;;16.76;60.07
12358;BME280;6243;51.244;6.774;2023-03-20T06:27:45;151654.69;;;16.61;59.77
12358;BME280;6243;51.244;6.774;2023-03-20T06:30:11;151616.34;;;16.46;60.20
12358;BME280;6243;51.244;6.774;2023-03-20T06:32:37;151768.41;;;17.06;58.53
12358;BME280;6243;51.244;6.774;2023-03-20T06:35:03;151676.44;;;16.70;59.59
12358;BME280;6243;51.244;6.774;2023-03-20T06:37:28;151786.31;;;17.13;58.43
12358;BME280;6243;51.244;6.774;2023-03-20T06:39:54;151758.19;;;17.02;57.57
12358;BME280;6243;51.244;6.774;2023-03-20T06:42:19;151824.63;;;17.28;57.61
12358;BME280;6243;51.244;6.774;2023-03-20T06:44:46;151786.31;;;17.13;57.27
12358;BME280;6243;51.244;6.774;2023-03-20T06:47:11;151905.19;;;17.60;56.63
12358;BME280;6243;51.244;6.774;2023-03-20T06:49:37;152013.81;;;18.03;55.52
12358;BME280;6243;51.244;6.774;2023-03-20T06:52:03;151937.16;;;17.73;55.97
12358;BME280;6243;51.244;6.774;2023-03-20T06:54:28;151978.06;;;17.89;55.53
12358;BME280;6243;51.244;6.774;2023-03-20T06:56:54;151953.78;;;17.79;55.79
12358;BME280;6243;51.244;6.774;2023-03-20T06:59:19;152065.00;;;18.23;55.17
12358;BME280;6243;51.244;6.774;2023-03-20T07:01:46;152063.72;;;18.22;54.99
12358;BME280;6243;51.244;6.774;2023-03-20T07:04:12;152108.47;;;18.40;54.67
12358;BME280;6243;51.244;6.774;2023-03-20T07:06:37;152112.28;;;18.41;54.73
12358;BME280;6243;51.244;6.774;2023-03-20T07:09:03;152152.03;;;18.57;54.30
12358;BME280;6243;51.244;6.774;2023-03-20T07:11:28;151937.16;;;17.73;55.78
12358;BME280;6243;51.244;6.774;2023-03-20T07:13:53;152137.94;;;18.52;54.29
12358;BME280;6243;51.244;6.774;2023-03-20T07:16:19;152011.28;;;18.02;55.62
12358;BME280;6243;51.244;6.774;2023-03-20T07:18:46;152117.44;;;18.43;54.40
12358;BME280;6243;51.244;6.774;2023-03-20T07:21:16;152113.56;;;18.42;54.45
12358;BME280;6243;51.244;6.774;2023-03-20T07:23:43;152089.28;;;18.32;54.22
12358;BME280;6243;51.244;6.774;2023-03-20T07:26:08;151992.09;;;17.94;54.61
12358;BME280;6243;51.244;6.774;2023-03-20T07:28:34;152027.91;;;18.08;54.83
12358;BME280;6243;51.244;6.774;2023-03-20T07:30:59;151995.91;;;17.96;55.29
12358;BME280;6243;51.244;6.774;2023-03-20T07:33:25;151958.88;;;17.81;55.53
12358;BME280;6243;51.244;6.774;2023-03-20T07:35:53;151995.91;;;17.96;55.19
12358;BME280;6243;51.244;6.774;2023-03-20T07:38:19;151595.94;;;16.38;57.77
12358;BME280;6243;51.244;6.774;2023-03-20T07:40:44;151952.47;;;17.79;55.76
12358;BME280;6243;51.244;6.774;2023-03-20T07:43:10;152015.13;;;18.03;55.22
12358;BME280;6243;51.244;6.774;2023-03-20T07:45:35;151857.81;;;17.41;56.21
12358;BME280;6243;51.244;6.774;2023-03-20T07:48:01;151940.97;;;17.74;55.44
12358;BME280;6243;51.244;6.774;2023-03-20T07:50:26;151865.50;;;17.44;55.79
12358;BME280;6243;51.244;6.774;2023-03-20T07:52:54;152045.81;;;18.15;54.73
12358;BME280;6243;51.244;6.774;2023-03-20T07:55:19;152143.06;;;18.54;53.85
12358;BME280;6243;51.244;6.774;2023-03-20T07:57:46;152175.06;;;18.66;53.78
12358;BME280;6243;51.244;6.774;2023-03-20T08:00:13;152192.91;;;18.73;53.63
12358;BME280;6243;51.244;6.774;2023-03-20T08:02:39;152263.28;;;19.01;52.94
12358;BME280;6243;51.244;6.774;2023-03-20T08:05:05;152258.19;;;18.99;53.00
12358;BME280;6243;51.244;6.774;2023-03-20T08:07:31;152182.69;;;18.69;53.65
12358;BME280;6243;51.244;6.774;2023-03-20T08:09:58;152063.72;;;18.22;54.06
12358;BME280;6243;51.244;6.774;2023-03-20T08:12:24;152144.34;;;18.54;53.84
12358;BME280;6243;51.244;6.774;2023-03-20T08:14:49;152162.25;;;18.61;53.57
12358;BME280;6243;51.244;6.774;2023-03-20T08:17:15;152171.19;;;18.65;53.23
12358;BME280;6243;51.244;6.774;2023-03-20T08:19:40;151995.91;;;17.96;55.07
12358;BME280;6243;51.244;6.774;2023-03-20T08:22:06;152223.63;;;18.85;53.21
12358;BME280;6243;51.244;6.774;2023-03-20T08:24:32;152153.28;;;18.58;53.54
12358;BME280;6243;51.244;6.774;2023-03-20T08:26:59;152112.28;;;18.41;53.42
12358;BME280;6243;51.244;6.774;2023-03-20T08:29:25;152246.66;;;18.94;52.98
12358;BME280;6243;51.244;6.774;2023-03-20T08:31:50;152230.03;;;18.88;52.50
12358;BME280;6243;51.244;6.774;2023-03-20T08:34:16;152269.69;;;19.03;52.38
12358;BME280;6243;51.244;6.774;2023-03-20T08:36:42;152422.06;;;19.63;51.68
12358;BME280;6243;51.244;6.774;2023-03-20T08:39:07;152254.34;;;18.97;52.65
12358;BME280;6243;51.244;6.774;2023-03-20T08:41:33;152076.53;;;18.27;53.42
12358;BME280;6243;51.244;6.774;2023-03-20T08:44:00;152356.75;;;19.38;51.91
12358;BME280;6243;51.244;6.774;2023-03-20T08:46:26;152446.41;;;19.73;51.12
12358;BME280;6243;51.244;6.774;2023-03-20T08:48:51;152395.19;;;19.53;50.86
12358;BME280;6243;51.244;6.774;2023-03-20T08:51:17;152510.41;;;19.98;50.69
12358;BME280;6243;51.244;6.774;2023-03-20T08:53:42;152413.13;;;19.60;50.77
12358;BME280;6243;51.244;6.774;2023-03-20T08:56:08;152470.72;;;19.83;50.11
12358;BME280;6243;51.244;6.774;2023-03-20T08:58:34;152497.59;;;19.93;49.96
12358;BME280;6243;51.244;6.774;2023-03-20T09:01:04;152530.88;;;20.06;49.29
12358;BME280;6243;51.244;6.774;2023-03-20T09:03:29;152451.50;;;19.75;49.77
12358;BME280;6243;51.244;6.774;2023-03-20T09:05:55;152487.38;;;19.89;49.40
12358;BME280;6243;51.244;6.774;2023-03-20T09:08:20;152511.69;;;19.99;48.98
12358;BME280;6243;51.244;6.774;2023-03-20T09:10:47;152542.41;;;20.11;48.58
12358;BME280;6243;51.244;6.774;2023-03-20T09:13:12;152317.06;;;19.22;49.23
12358;BME280;6243;51.244;6.774;2023-03-20T09:15:38;152479.66;;;19.86;48.66
12358;BME280;6243;51.244;6.774;2023-03-20T09:18:05;152402.84;;;19.56;48.69
12358;BME280;6243;51.244;6.774;2023-03-20T09:20:31;152474.56;;;19.84;48.09
12358;BME280;6243;51.244;6.774;2023-03-20T09:22:56;152482.25;;;19.87;47.96
12358;BME280;6243;51.244;6.774;2023-03-20T09:25:22;152477.09;;;19.85;47.95
12358;BME280;6243;51.244;6.774;2023-03-20T09:27:50;152534.75;;;20.08;47.33
12358;BME280;6243;51.244;6.774;2023-03-20T09:30:16;152510.41;;;19.98;46.81
12358;BME280;6243;51.244;6.774;2023-03-20T09:32:42;152393.91;;;19.52;47.54
12358;BME280;6243;51.244;6.774;2023-03-20T09:35:09;152516.81;;;20.01;47.10
12358;BME280;6243;51.244;6.774;2023-03-20T09:37:34;152451.50;;;19.75;47.36
12358;BME280;6243;51.244;6.774;2023-03-20T09:40:00;152632.13;;;20.46;46.65
12358;BME280;6243;51.244;6.774;2023-03-20T09:42:37;152673.13;;;20.62;46.16
12358;BME280;6243;51.244;6.774;2023-03-20T09:45:10;152441.28;;;19.71;47.23
12358;BME280;6243;51.244;6.774;2023-03-20T09:47:46;152460.44;;;19.78;46.39
12358;BME280;6243;51.244;6.774;2023-03-20T09:50:24;152552.63;;;20.15;46.04
12358;BME280;6243;51.244;6.774;2023-03-20T09:52:56;152530.88;;;20.06;45.85
12358;BME280;6243;51.244;6.774;2023-03-20T09:55:30;152641.06;;;20.49;45.52
12358;BME280;6243;51.244;6.774;2023-03-20T09:58:02;152574.50;;;20.23;45.27
12358;BME280;6243;51.244;6.774;2023-03-20T10:00:30;152551.41;;;20.14;45.24
12358;BME280;6243;51.244;6.774;2023-03-20T10:02:59;152644.94;;;20.51;45.51
12358;BME280;6243;51.244;6.774;2023-03-20T10:05:29;152355.47;;;19.37;45.66
12358;BME280;6243;51.244;6.774;2023-03-20T10:07:57;152221.09;;;18.84;45.98
12358;BME280;6243;51.244;6.774;2023-03-20T10:10:28;152218.53;;;18.83;46.79
12358;BME280;6243;51.244;6.774;2023-03-20T10:13:04;152123.84;;;18.46;47.36
12358;BME280;6243;51.244;6.774;2023-03-20T10:15:40;152416.94;;;19.61;46.31
12358;BME280;6243;51.244;6.774;2023-03-20T10:18:15;152368.28;;;19.42;46.42
12358;BME280;6243;51.244;6.774;2023-03-20T10:20:47;152532.16;;;20.07;45.89
12358;BME280;6243;51.244;6.774;2023-03-20T10:23:22;152519.34;;;20.02;46.20
12358;BME280;6243;51.244;6.774;2023-03-20T10:25:52;152544.97;;;20.12;45.51
12358;BME280;6243;51.244;6.774;2023-03-20T10:28:21;152378.50;;;19.46;46.49
12358;BME280;6243;51.244;6.774;2023-03-20T10:30:56;152401.59;;;19.55;45.86
12358;BME280;6243;51.244;6.774;2023-03-20T10:33:33;152189.09;;;18.72;46.64
12358;BME280;6243;51.244;6.774;2023-03-20T10:36:16;152454.03;;;19.76;46.29
12358;BME280;6243;51.244;6.774;2023-03-20T10:38:48;152338.78;;;19.31;46.62
12358;BME280;6243;51.244;6.774;2023-03-20T10:41:20;152551.41;;;20.14;45.45
12358;BME280;6243;51.244;6.774;2023-03-20T10:43:47;152607.78;;;20.36;45.45
12358;BME280;6243;51.244;6.774;2023-03-20T10:46:16;152498.88;;;19.94;45.50
12358;BME280;6243;51.244;6.774;2023-03-20T10:48:45;152566.75;;;20.20;44.65
12358;BME280;6243;51.244;6.774;2023-03-20T10:51:16;152404.13;;;19.56;45.34
12358;BME280;6243;51.244;6.774;2023-03-20T10:53:45;152519.34;;;20.02;45.11
12358;BME280;6243;51.244;6.774;2023-03-20T10:56:13;152121.31;;;18.45;47.03
12358;BME280;6243;51.244;6.774;2023-03-20T10:58:41;152520.63;;;20.02;46.01
12358;BME280;6243;51.244;6.774;2023-03-20T11:01:09;152021.50;;;18.06;48.25
12358;BME280;6243;51.244;6.774;2023-03-20T11:03:34;152397.72;;;19.54;46.73
12358;BME280;6243;51.244;6.774;2023-03-20T11:06:02;152402.84;;;19.56;46.36
12358;BME280;6243;51.244;6.774;2023-03-20T11:08:34;152265.88;;;19.02;46.89
12358;BME280;6243;51.244;6.774;2023-03-20T11:11:02;152324.75;;;19.25;46.90
12358;BME280;6243;51.244;6.774;2023-03-20T11:13:31;152456.63;;;19.77;46.58
12358;BME280;6243;51.244;6.774;2023-03-20T11:16:07;152192.91;;;18.73;47.57
12358;BME280;6243;51.244;6.774;2023-03-20T11:18:33;152213.41;;;18.81;47.82
12358;BME280;6243;51.244;6.774;2023-03-20T11:21:00;152209.59;;;18.80;47.72
12358;BME280;6243;51.244;6.774;2023-03-20T11:23:28;152292.72;;;19.12;47.50
12358;BME280;6243;51.244;6.774;2023-03-20T11:25:57;152315.75;;;19.22;47.05
12358;BME280;6243;51.244;6.774;2023-03-20T11:28:30;152191.69;;;18.73;47.47
12358;BME280;6243;51.244;6.774;2023-03-20T11:30:58;152381.09;;;19.47;45.85
12358;BME280;6243;51.244;6.774;2023-03-20T11:33:25;152455.34;;;19.76;46.35
12358;BME280;6243;51.244;6.774;2023-03-20T11:35:54;152571.91;;;20.22;46.41
12358;BME280;6243;51.244;6.774;2023-03-20T11:38:21;152423.34;;;19.64;46.91
12358;BME280;6243;51.244;6.774;2023-03-20T11:40:48;152486.06;;;19.89;47.20
12358;BME280;6243;51.244;6.774;2023-03-20T11:43:18;152232.63;;;18.89;47.55
12358;BME280;6243;51.244;6.774;2023-03-20T11:45:46;152288.91;;;19.11;47.42
12358;BME280;6243;51.244;6.774;2023-03-20T11:48:18;152457.91;;;19.77;46.42
12358;BME280;6243;51.244;6.774;2023-03-20T11:50:47;152533.47;;;20.07;46.69
12358;BME280;6243;51.244;6.774;2023-03-20T11:53:20;152538.56;;;20.09;46.69
12358;BME280;6243;51.244;6.774;2023-03-20T11:56:01;152429.75;;;19.66;46.64
12358;BME280;6243;51.244;6.774;2023-03-20T11:58:28;152382.38;;;19.48;47.83
12358;BME280;6243;51.244;6.774;2023-03-20T12:00:55;152477.09;;;19.85;48.09
12358;BME280;6243;51.244;6.774;2023-03-20T12:03:41;152437.41;;;19.69;47.88
12358;BME280;6243;51.244;6.774;2023-03-20T12:06:12;152500.19;;;19.94;47.35
12358;BME280;6243;51.244;6.774;2023-03-20T12:08:40;152233.84;;;18.89;48.87
12358;BME280;6243;51.244;6.774;2023-03-20T12:11:20;152258.19;;;18.99;49.01
12358;BME280;6243;51.244;6.774;2023-03-20T12:13:51;152329.84;;;19.27;48.40
12358;BME280;6243;51.244;6.774;2023-03-20T12:16:20;152162.25;;;18.61;48.99
12358;BME280;6243;51.244;6.774;2023-03-20T12:18:48;152131.53;;;18.49;48.56
12358;BME280;6243;51.244;6.774;2023-03-20T12:21:20;152177.59;;;18.67;49.64
12358;BME280;6243;51.244;6.774;2023-03-20T12:23:51;152418.25;;;19.62;48.62
12358;BME280;6243;51.244;6.774;2023-03-20T12:26:21;152465.56;;;19.80;49.01
12358;BME280;6243;51.244;6.774;2023-03-20T12:28:55;152327.28;;;19.26;50.65
12358;BME280;6243;51.244;6.774;2023-03-20T12:31:25;152189.09;;;18.72;52.00
12358;BME280;6243;51.244;6.774;2023-03-20T12:33:53;152217.22;;;18.83;51.98
12358;BME280;6243;51.244;6.774;2023-03-20T12:36:26;152393.91;;;19.52;51.21
12358;BME280;6243;51.244;6.774;2023-03-20T12:38:53;152281.22;;;19.08;52.07
12358;BME280;6243;51.244;6.774;2023-03-20T12:41:23;152418.25;;;19.62;51.07
12358;BME280;6243;51.244;6.774;2023-03-20T12:46:57;152411.81;;;19.59;50.98
12358;BME280;6243;51.244;6.774;2023-03-20T12:49:37;152104.66;;;18.38;52.79
12358;BME280;6243;51.244;6.774;2023-03-20T12:52:12;152393.91;;;19.52;51.40
12358;BME280;6243;51.244;6.774;2023-03-20T12:54:53;152010.00;;;18.01;51.65
12358;BME280;6243;51.244;6.774;2023-03-20T12:57:29;152119.97;;;18.44;51.63
12358;BME280;6243;51.244;6.774;2023-03-20T13:00:09;152164.78;;;18.62;50.42
12358;BME280;6243;51.244;6.774;2023-03-20T13:02:44;152311.94;;;19.20;49.60
12358;BME280;6243;51.244;6.774;2023-03-20T13:05:22;152432.28;;;19.67;49.48
12358;BME280;6243;51.244;6.774;2023-03-20T13:08:05;152470.72;;;19.83;49.27
12358;BME280;6243;51.244;6.774;2023-03-20T13:10:53;152498.88;;;19.94;48.35
12358;BME280;6243;51.244;6.774;2023-03-20T13:13:28;152532.16;;;20.07;47.96
12358;BME280;6243;51.244;6.774;2023-03-20T13:16:04;152080.34;;;18.29;50.74